Homestown, Missouri
Current Conditions -  °F | °C
As of 5:53 AM on Friday 28 Nov 2014 (Local Time) from KHKA Reporting Station
Clear Clear  
Wind Chill: -1°   Ceiling: Unl
Heat Index:   Visibility: 10mi
Dew Point: -3°   Wind: 8mph
Humidity: 65%   Direction: 170°S
Pressure: 30.41"   Gusts: NA
Location:  36.3524°N, 89.8327°W
Report Text: KHKA 281153Z AUTO 17007KT 10SM CLR 03/M03 A3041 RMK AO2 SLP297 T00281033 10044 20022 56010 $
Loading
Personal Weather Stations






























Interactive Weather Map New forecast layout! Learn more

10-Day Weather Forecast

Advertisements
Track Severe Weather on mobile